Namest Nad Oslav, Czech Republic

1:49 PM CET on December 28, 2014 (GMT +0100)
Zbysov (Jizni Morava) | Change Station
CLOSE
Current Station
Personal Weather Station
Location: Zbysov, Jizni Morava
Elevation: 1115 ft
Nearby Weather Stations

Elev 1115 ft 49.15 °N, 16.35 °E | Updated 4 minutes ago

Partly Cloudy
Partly Cloudy
23.5 °F
Feels Like 15 °F
N
7.8
Wind Variable Wind from North
Gusts 11.0 mph

Today
High -- | Low -- °F
--% Chance of Precip.
Yesterday
High -- | Low -- °F
Precip. -- in
7:49 AM 4:04 PM
Waxing Crescent, 47% visible
Pressure 29.95 in
Visibility 6.2 miles
Clouds Few 2600 ft
Windchill 15 °F
Dew Point 17 °F
Humidity 75%
Rainfall 0.03 in
Snow Depth Not available.
UV 1 out of 12
Pollen Not available.
Air Quality Not available.
Flu Activity Not available.
METAR LKTB 281230Z 36011KT 340V040 9999 FEW026 M04/M10 Q1014 R28/41//95 NOSIG

More Conditions Fewer Conditions

Pressure 29.95 in
Visibility 6.2 miles
Clouds Few 2600 ft
Windchill 15 °F
Dew Point 17 °F
Humidity 75%
Rainfall 0.03 in
Snow Depth Not available.
UV 1 out of 12
Pollen Not available.
Air Quality Not available.
Flu Activity Not available.
METAR LKTB 281230Z 36011KT 340V040 9999 FEW026 M04/M10 Q1014 R28/41//95 NOSIG

More Conditions Fewer Conditions

10-Day Weather Forecast

Almanac

Astronomy

Dec. 28, 2014 Rise Set
Actual Time
Civil Twilight
Nautical Twilight
Astronomical Twilight
Moon
Length of Visible Light
Length of Day
Tomorrow will be .
, % of the Moon is Illuminated

Today's Extremes

Country Highs Country Lows

Community

WunderPhotos

Upload Photos

1,781,249 photos uploaded!

WunderBlogs® & News

Nearby

Air Quality

  Air Quality AQ Index Pollutant
Not available.

Snow Depth

Station Depth Elevation

Earthquake Activity

City Distance Mag. Time & Date
Minimum magnitude displayed is 2.5.

Coastal Water Temperatures

Place Temperature

Nearby Weather Stations